sensor_id;sensor_type;location;lat;lon;timestamp;pressure;altitude;pressure_sealevel;temperature;humidity
12182;BME280;6154;51.550;12.138;2022-08-30T00:01:35;100944.88;;;21.40;52.53
12182;BME280;6154;51.550;12.138;2022-08-30T00:04:02;100948.87;;;21.36;52.58
12182;BME280;6154;51.550;12.138;2022-08-30T00:06:33;100950.97;;;21.32;52.69
12182;BME280;6154;51.550;12.138;2022-08-30T00:09:02;100958.34;;;21.30;53.07
12182;BME280;6154;51.550;12.138;2022-08-30T00:11:30;100955.81;;;21.29;53.13
12182;BME280;6154;51.550;12.138;2022-08-30T00:13:58;100955.81;;;21.29;53.06
12182;BME280;6154;51.550;12.138;2022-08-30T00:16:26;100952.41;;;21.27;52.84
12182;BME280;6154;51.550;12.138;2022-08-30T00:18:55;100955.22;;;21.25;52.96
12182;BME280;6154;51.550;12.138;2022-08-30T00:21:23;100955.31;;;21.23;53.17
12182;BME280;6154;51.550;12.138;2022-08-30T00:23:53;100949.37;;;21.20;53.01
12182;BME280;6154;51.550;12.138;2022-08-30T00:26:21;100952.37;;;21.17;53.08
12182;BME280;6154;51.550;12.138;2022-08-30T00:28:48;100952.50;;;21.15;53.25
12182;BME280;6154;51.550;12.138;2022-08-30T00:31:17;100952.06;;;21.10;53.46
12182;BME280;6154;51.550;12.138;2022-08-30T00:33:45;100951.50;;;21.07;53.36
12182;BME280;6154;51.550;12.138;2022-08-30T00:36:14;100944.66;;;21.03;53.37
12182;BME280;6154;51.550;12.138;2022-08-30T00:38:42;100941.56;;;20.98;53.61
12182;BME280;6154;51.550;12.138;2022-08-30T00:41:10;100948.94;;;20.95;53.40
12182;BME280;6154;51.550;12.138;2022-08-30T00:43:38;100950.78;;;20.95;53.33
12182;BME280;6154;51.550;12.138;2022-08-30T00:46:06;100950.88;;;20.93;53.73
12182;BME280;6154;51.550;12.138;2022-08-30T00:48:38;100957.41;;;20.91;53.53
12182;BME280;6154;51.550;12.138;2022-08-30T00:51:10;100955.84;;;20.88;53.55
12182;BME280;6154;51.550;12.138;2022-08-30T00:53:44;100951.44;;;20.87;53.40
12182;BME280;6154;51.550;12.138;2022-08-30T00:56:14;100955.28;;;20.85;53.35
12182;BME280;6154;51.550;12.138;2022-08-30T00:58:46;100955.37;;;20.83;53.13
12182;BME280;6154;51.550;12.138;2022-08-30T01:01:16;100954.12;;;20.78;53.18
12182;BME280;6154;51.550;12.138;2022-08-30T01:03:45;100955.09;;;20.77;53.01
12182;BME280;6154;51.550;12.138;2022-08-30T01:06:15;100958.06;;;20.74;53.14
12182;BME280;6154;51.550;12.138;2022-08-30T01:08:46;100959.19;;;20.71;52.80
12182;BME280;6154;51.550;12.138;2022-08-30T01:11:17;100963.84;;;20.69;52.99
12182;BME280;6154;51.550;12.138;2022-08-30T01:13:47;100956.91;;;20.66;52.99
12182;BME280;6154;51.550;12.138;2022-08-30T01:16:17;100958.16;;;20.62;53.24
12182;BME280;6154;51.550;12.138;2022-08-30T01:18:47;100956.03;;;20.56;52.89
12182;BME280;6154;51.550;12.138;2022-08-30T01:21:21;100956.69;;;20.49;53.25
12182;BME280;6154;51.550;12.138;2022-08-30T01:23:54;100951.84;;;20.43;54.16
12182;BME280;6154;51.550;12.138;2022-08-30T01:26:24;100963.84;;;20.38;54.99
12182;BME280;6154;51.550;12.138;2022-08-30T01:28:55;100967.38;;;20.39;55.23
12182;BME280;6154;51.550;12.138;2022-08-30T01:31:25;100963.69;;;20.40;54.39
12182;BME280;6154;51.550;12.138;2022-08-30T01:33:53;100961.16;;;20.38;54.40
12182;BME280;6154;51.550;12.138;2022-08-30T01:36:21;100959.97;;;20.31;54.32
12182;BME280;6154;51.550;12.138;2022-08-30T01:38:51;100956.16;;;20.24;54.55
12182;BME280;6154;51.550;12.138;2022-08-30T01:41:22;100959.94;;;20.22;54.43
12182;BME280;6154;51.550;12.138;2022-08-30T01:43:52;100962.31;;;20.15;54.26
12182;BME280;6154;51.550;12.138;2022-08-30T01:46:25;100972.87;;;20.07;54.54
12182;BME280;6154;51.550;12.138;2022-08-30T01:48:55;100968.00;;;20.01;55.95
12182;BME280;6154;51.550;12.138;2022-08-30T01:51:25;100968.72;;;20.03;55.55
12182;BME280;6154;51.550;12.138;2022-08-30T01:53:54;100956.75;;;20.07;55.67
12182;BME280;6154;51.550;12.138;2022-08-30T01:56:25;100958.44;;;20.08;55.56
12182;BME280;6154;51.550;12.138;2022-08-30T01:58:54;100956.59;;;20.08;55.71
12182;BME280;6154;51.550;12.138;2022-08-30T02:01:29;100950.38;;;20.08;55.79
12182;BME280;6154;51.550;12.138;2022-08-30T02:03:59;100952.59;;;20.03;55.20
12182;BME280;6154;51.550;12.138;2022-08-30T02:06:27;100960.34;;;19.96;55.15
12182;BME280;6154;51.550;12.138;2022-08-30T02:08:55;100953.81;;;19.89;55.04
12182;BME280;6154;51.550;12.138;2022-08-30T02:11:25;100959.97;;;19.80;55.06
12182;BME280;6154;51.550;12.138;2022-08-30T02:13:53;100958.75;;;19.73;55.09
12182;BME280;6154;51.550;12.138;2022-08-30T02:16:22;100955.78;;;19.66;55.29
12182;BME280;6154;51.550;12.138;2022-08-30T02:18:51;100955.41;;;19.60;55.29
12182;BME280;6154;51.550;12.138;2022-08-30T02:21:20;100954.94;;;19.55;55.26
12182;BME280;6154;51.550;12.138;2022-08-30T02:23:49;100944.72;;;19.48;55.20
12182;BME280;6154;51.550;12.138;2022-08-30T02:26:17;100950.56;;;19.42;55.10
12182;BME280;6154;51.550;12.138;2022-08-30T02:28:47;100954.78;;;19.35;55.15
12182;BME280;6154;51.550;12.138;2022-08-30T02:31:16;100953.56;;;19.28;55.46
12182;BME280;6154;51.550;12.138;2022-08-30T02:33:48;100963.38;;;19.18;55.85
12182;BME280;6154;51.550;12.138;2022-08-30T02:36:17;100964.34;;;19.17;55.77
12182;BME280;6154;51.550;12.138;2022-08-30T02:38:47;100958.25;;;19.15;55.64
12182;BME280;6154;51.550;12.138;2022-08-30T02:41:16;100960.44;;;19.10;55.54
12182;BME280;6154;51.550;12.138;2022-08-30T02:43:46;100962.41;;;19.08;55.48
12182;BME280;6154;51.550;12.138;2022-08-30T02:46:14;100960.84;;;19.05;56.26
12182;BME280;6154;51.550;12.138;2022-08-30T02:48:43;100956.56;;;19.03;55.51
12182;BME280;6154;51.550;12.138;2022-08-30T02:51:12;100959.50;;;19.00;55.50
12182;BME280;6154;51.550;12.138;2022-08-30T02:53:42;100956.09;;;18.98;55.71
12182;BME280;6154;51.550;12.138;2022-08-30T02:56:12;100960.00;;;18.93;55.50
12182;BME280;6154;51.550;12.138;2022-08-30T02:58:42;100958.28;;;18.92;55.43
12182;BME280;6154;51.550;12.138;2022-08-30T03:01:13;100948.94;;;18.87;55.58
12182;BME280;6154;51.550;12.138;2022-08-30T03:03:43;100954.16;;;18.88;55.84
12182;BME280;6154;51.550;12.138;2022-08-30T03:06:12;100953.66;;;18.83;55.69
12182;BME280;6154;51.550;12.138;2022-08-30T03:08:40;100949.41;;;18.81;55.46
12182;BME280;6154;51.550;12.138;2022-08-30T03:11:09;100946.00;;;18.79;55.98
12182;BME280;6154;51.550;12.138;2022-08-30T03:13:40;100948.94;;;18.76;55.95
12182;BME280;6154;51.550;12.138;2022-08-30T03:16:08;100954.31;;;18.76;56.73
12182;BME280;6154;51.550;12.138;2022-08-30T03:18:38;100946.59;;;18.82;56.74
12182;BME280;6154;51.550;12.138;2022-08-30T03:21:09;100950.62;;;18.88;56.88
12182;BME280;6154;51.550;12.138;2022-08-30T03:23:38;100946.84;;;18.90;57.60
12182;BME280;6154;51.550;12.138;2022-08-30T03:26:06;100943.41;;;19.00;57.54
12182;BME280;6154;51.550;12.138;2022-08-30T03:28:36;100948.41;;;19.04;58.29
12182;BME280;6154;51.550;12.138;2022-08-30T03:31:04;100958.50;;;19.12;58.11
12182;BME280;6154;51.550;12.138;2022-08-30T03:33:33;100961.53;;;19.18;58.75
12182;BME280;6154;51.550;12.138;2022-08-30T03:36:02;100962.59;;;19.27;58.67
12182;BME280;6154;51.550;12.138;2022-08-30T03:38:34;100955.00;;;19.32;58.83
12182;BME280;6154;51.550;12.138;2022-08-30T03:41:03;100961.00;;;19.36;59.45
12182;BME280;6154;51.550;12.138;2022-08-30T03:43:33;100960.47;;;19.42;59.31
12182;BME280;6154;51.550;12.138;2022-08-30T03:46:02;100957.66;;;19.43;60.12
12182;BME280;6154;51.550;12.138;2022-08-30T03:48:31;100958.41;;;19.45;60.64
12182;BME280;6154;51.550;12.138;2022-08-30T03:50:59;100963.50;;;19.48;61.10
12182;BME280;6154;51.550;12.138;2022-08-30T03:53:29;100965.44;;;19.58;59.94
12182;BME280;6154;51.550;12.138;2022-08-30T03:55:57;100962.63;;;19.59;60.47
12182;BME280;6154;51.550;12.138;2022-08-30T03:58:25;100963.34;;;19.61;59.86
12182;BME280;6154;51.550;12.138;2022-08-30T04:00:54;100962.97;;;19.66;60.36
12182;BME280;6154;51.550;12.138;2022-08-30T04:03:23;100957.59;;;19.66;60.25
12182;BME280;6154;51.550;12.138;2022-08-30T04:05:52;100961.50;;;19.62;60.99
12182;BME280;6154;51.550;12.138;2022-08-30T04:08:20;100966.16;;;19.60;61.09
12182;BME280;6154;51.550;12.138;2022-08-30T04:10:49;100963.22;;;19.63;60.42
12182;BME280;6154;51.550;12.138;2022-08-30T04:13:19;100971.25;;;19.63;60.89
12182;BME280;6154;51.550;12.138;2022-08-30T04:15:48;100965.78;;;19.64;60.29
12182;BME280;6154;51.550;12.138;2022-08-30T04:18:16;100972.97;;;19.64;60.25
12182;BME280;6154;51.550;12.138;2022-08-30T04:20:44;100969.44;;;19.63;60.00
12182;BME280;6154;51.550;12.138;2022-08-30T04:23:13;100973.94;;;19.63;59.69
12182;BME280;6154;51.550;12.138;2022-08-30T04:25:42;100975.19;;;19.59;59.82
12182;BME280;6154;51.550;12.138;2022-08-30T04:28:11;100974.34;;;19.58;59.63
12182;BME280;6154;51.550;12.138;2022-08-30T04:30:41;100975.34;;;19.57;59.91
12182;BME280;6154;51.550;12.138;2022-08-30T04:33:10;100972.78;;;19.56;59.66
12182;BME280;6154;51.550;12.138;2022-08-30T04:35:40;100969.13;;;19.57;59.41
12182;BME280;6154;51.550;12.138;2022-08-30T04:38:09;100981.78;;;19.55;59.89
12182;BME280;6154;51.550;12.138;2022-08-30T04:40:37;100986.31;;;19.54;59.95
12182;BME280;6154;51.550;12.138;2022-08-30T04:43:07;100989.00;;;19.54;59.99
12182;BME280;6154;51.550;12.138;2022-08-30T04:45:37;100990.81;;;19.53;59.92
12182;BME280;6154;51.550;12.138;2022-08-30T04:48:06;100986.31;;;19.54;59.75
12182;BME280;6154;51.550;12.138;2022-08-30T04:50:34;100989.94;;;19.53;59.48
12182;BME280;6154;51.550;12.138;2022-08-30T04:53:10;100987.16;;;19.55;59.92
12182;BME280;6154;51.550;12.138;2022-08-30T04:55:39;100985.69;;;19.50;60.40
12182;BME280;6154;51.550;12.138;2022-08-30T04:58:07;100991.91;;;19.51;60.78
12182;BME280;6154;51.550;12.138;2022-08-30T05:00:37;101005.97;;;19.55;60.39
12182;BME280;6154;51.550;12.138;2022-08-30T05:03:08;101001.06;;;19.60;60.04
12182;BME280;6154;51.550;12.138;2022-08-30T05:05:36;101004.47;;;19.62;60.43
12182;BME280;6154;51.550;12.138;2022-08-30T05:08:08;101008.00;;;19.62;60.60
12182;BME280;6154;51.550;12.138;2022-08-30T05:10:38;101012.87;;;19.68;60.23
12182;BME280;6154;51.550;12.138;2022-08-30T05:13:07;101015.31;;;19.71;60.21
12182;BME280;6154;51.550;12.138;2022-08-30T05:15:37;101015.91;;;19.75;61.01
12182;BME280;6154;51.550;12.138;2022-08-30T05:18:06;101018.34;;;19.78;60.37
12182;BME280;6154;51.550;12.138;2022-08-30T05:20:40;101025.62;;;19.87;60.04
12182;BME280;6154;51.550;12.138;2022-08-30T05:23:09;101022.53;;;19.92;60.51
12182;BME280;6154;51.550;12.138;2022-08-30T05:25:38;101024.84;;;19.96;60.32
12182;BME280;6154;51.550;12.138;2022-08-30T05:28:07;101031.38;;;20.03;60.69
12182;BME280;6154;51.550;12.138;2022-08-30T05:30:37;101034.28;;;20.12;60.38
12182;BME280;6154;51.550;12.138;2022-08-30T05:33:05;101029.25;;;20.18;60.87
12182;BME280;6154;51.550;12.138;2022-08-30T05:35:33;101034.22;;;20.23;60.54
12182;BME280;6154;51.550;12.138;2022-08-30T05:38:01;101033.81;;;20.27;60.50
12182;BME280;6154;51.550;12.138;2022-08-30T05:40:29;101040.78;;;20.30;61.89
12182;BME280;6154;51.550;12.138;2022-08-30T05:42:57;101033.63;;;20.40;61.20
12182;BME280;6154;51.550;12.138;2022-08-30T05:45:26;101037.91;;;20.43;61.66
12182;BME280;6154;51.550;12.138;2022-08-30T05:47:55;101034.81;;;20.47;61.41
12182;BME280;6154;51.550;12.138;2022-08-30T05:50:23;101036.97;;;20.53;61.23
12182;BME280;6154;51.550;12.138;2022-08-30T05:52:52;101034.75;;;20.58;61.44
12182;BME280;6154;51.550;12.138;2022-08-30T05:55:20;101034.22;;;20.64;61.39
12182;BME280;6154;51.550;12.138;2022-08-30T05:57:48;101033.53;;;20.72;61.70
12182;BME280;6154;51.550;12.138;2022-08-30T06:00:17;101033.69;;;20.80;61.37
12182;BME280;6154;51.550;12.138;2022-08-30T06:02:46;101031.75;;;20.92;61.50
12182;BME280;6154;51.550;12.138;2022-08-30T06:05:15;101030.94;;;21.01;61.51
12182;BME280;6154;51.550;12.138;2022-08-30T06:07:43;101032.66;;;21.12;61.63
12182;BME280;6154;51.550;12.138;2022-08-30T06:10:11;101042.47;;;21.22;61.46
12182;BME280;6154;51.550;12.138;2022-08-30T06:12:43;101039.41;;;21.27;61.55
12182;BME280;6154;51.550;12.138;2022-08-30T06:15:11;101047.50;;;21.27;63.16
12182;BME280;6154;51.550;12.138;2022-08-30T06:17:39;101042.84;;;21.39;61.97
12182;BME280;6154;51.550;12.138;2022-08-30T06:20:08;101050.50;;;21.53;61.34
12182;BME280;6154;51.550;12.138;2022-08-30T06:22:38;101050.78;;;21.50;61.81
12182;BME280;6154;51.550;12.138;2022-08-30T06:25:08;101051.81;;;21.68;61.23
12182;BME280;6154;51.550;12.138;2022-08-30T06:27:37;101054.50;;;21.88;60.87
12182;BME280;6154;51.550;12.138;2022-08-30T06:30:07;101061.00;;;22.04;60.57
12182;BME280;6154;51.550;12.138;2022-08-30T06:32:37;101058.78;;;22.19;60.41
12182;BME280;6154;51.550;12.138;2022-08-30T06:35:06;101058.75;;;22.29;60.59
12182;BME280;6154;51.550;12.138;2022-08-30T06:37:34;101053.91;;;22.32;60.69
12182;BME280;6154;51.550;12.138;2022-08-30T06:40:05;101052.34;;;22.40;60.70
12182;BME280;6154;51.550;12.138;2022-08-30T06:42:33;101047.63;;;22.51;60.48
12182;BME280;6154;51.550;12.138;2022-08-30T06:45:01;101050.16;;;22.62;60.51
12182;BME280;6154;51.550;12.138;2022-08-30T06:47:37;101055.81;;;22.69;60.63
12182;BME280;6154;51.550;12.138;2022-08-30T06:50:07;101059.88;;;22.92;60.00
12182;BME280;6154;51.550;12.138;2022-08-30T06:52:38;101059.56;;;23.05;60.01
12182;BME280;6154;51.550;12.138;2022-08-30T06:55:10;101062.59;;;23.20;59.75
12182;BME280;6154;51.550;12.138;2022-08-30T06:57:39;101064.13;;;23.22;60.48
12182;BME280;6154;51.550;12.138;2022-08-30T07:00:09;101063.50;;;23.38;59.29
12182;BME280;6154;51.550;12.138;2022-08-30T07:02:38;101065.38;;;23.56;58.92
12182;BME280;6154;51.550;12.138;2022-08-30T07:05:08;101064.78;;;23.62;58.58
12182;BME280;6154;51.550;12.138;2022-08-30T07:07:43;101063.16;;;23.69;58.81
12182;BME280;6154;51.550;12.138;2022-08-30T07:10:14;101061.75;;;23.83;58.54
12182;BME280;6154;51.550;12.138;2022-08-30T07:12:42;101064.47;;;24.00;58.70
12182;BME280;6154;51.550;12.138;2022-08-30T07:15:11;101063.22;;;23.95;58.70
12182;BME280;6154;51.550;12.138;2022-08-30T07:17:39;101064.78;;;23.97;58.22
12182;BME280;6154;51.550;12.138;2022-08-30T07:20:26;101059.59;;;24.04;57.84
12182;BME280;6154;51.550;12.138;2022-08-30T07:23:08;101061.94;;;23.99;58.12
12182;BME280;6154;51.550;12.138;2022-08-30T07:25:39;101060.84;;;24.09;57.83
12182;BME280;6154;51.550;12.138;2022-08-30T07:28:08;101055.75;;;24.06;58.47
12182;BME280;6154;51.550;12.138;2022-08-30T07:30:39;101063.44;;;24.19;57.83
12182;BME280;6154;51.550;12.138;2022-08-30T07:33:08;101067.37;;;24.25;57.87
12182;BME280;6154;51.550;12.138;2022-08-30T07:35:36;101065.06;;;24.30;57.75
12182;BME280;6154;51.550;12.138;2022-08-30T07:38:04;101069.12;;;24.52;57.82
12182;BME280;6154;51.550;12.138;2022-08-30T07:40:32;101071.56;;;24.63;57.77
12182;BME280;6154;51.550;12.138;2022-08-30T07:43:02;101068.16;;;24.87;57.20
12182;BME280;6154;51.550;12.138;2022-08-30T07:45:30;101068.25;;;25.03;57.08
12182;BME280;6154;51.550;12.138;2022-08-30T07:48:01;101073.97;;;25.26;56.59
12182;BME280;6154;51.550;12.138;2022-08-30T07:50:30;101078.03;;;25.30;56.32
12182;BME280;6154;51.550;12.138;2022-08-30T07:52:58;101074.44;;;25.21;56.52
12182;BME280;6154;51.550;12.138;2022-08-30T07:55:26;101077.50;;;25.35;56.37
12182;BME280;6154;51.550;12.138;2022-08-30T07:57:54;101077.09;;;25.56;56.21
12182;BME280;6154;51.550;12.138;2022-08-30T08:00:24;101082.09;;;25.76;55.71
12182;BME280;6154;51.550;12.138;2022-08-30T08:02:53;101075.81;;;25.92;55.35
12182;BME280;6154;51.550;12.138;2022-08-30T08:05:21;101076.19;;;26.05;55.18
12182;BME280;6154;51.550;12.138;2022-08-30T08:07:50;101069.88;;;26.21;54.93
12182;BME280;6154;51.550;12.138;2022-08-30T08:10:19;101073.12;;;26.41;54.71
12182;BME280;6154;51.550;12.138;2022-08-30T08:12:47;101081.41;;;26.64;54.55
12182;BME280;6154;51.550;12.138;2022-08-30T08:15:17;101074.28;;;26.63;54.21
12182;BME280;6154;51.550;12.138;2022-08-30T08:17:48;101075.91;;;26.88;54.16
12182;BME280;6154;51.550;12.138;2022-08-30T08:20:17;101074.50;;;27.01;53.84
12182;BME280;6154;51.550;12.138;2022-08-30T08:22:49;101086.94;;;27.03;53.33
12182;BME280;6154;51.550;12.138;2022-08-30T08:25:18;101085.75;;;27.06;53.27
12182;BME280;6154;51.550;12.138;2022-08-30T08:27:46;101079.56;;;27.20;53.05
12182;BME280;6154;51.550;12.138;2022-08-30T08:30:17;101079.78;;;27.41;52.80
12182;BME280;6154;51.550;12.138;2022-08-30T08:32:45;101080.41;;;27.52;52.58
12182;BME280;6154;51.550;12.138;2022-08-30T08:35:16;101081.69;;;27.64;51.95
12182;BME280;6154;51.550;12.138;2022-08-30T08:37:44;101087.78;;;27.74;51.47
12182;BME280;6154;51.550;12.138;2022-08-30T08:40:16;101089.09;;;27.86;51.76
12182;BME280;6154;51.550;12.138;2022-08-30T08:42:57;101085.63;;;27.92;51.21
12182;BME280;6154;51.550;12.138;2022-08-30T08:45:37;101087.19;;;28.10;50.63
12182;BME280;6154;51.550;12.138;2022-08-30T08:48:13;101084.06;;;27.98;50.61
12182;BME280;6154;51.550;12.138;2022-08-30T08:50:46;101087.38;;;28.31;51.25
12182;BME280;6154;51.550;12.138;2022-08-30T08:53:32;101085.84;;;28.51;50.71
12182;BME280;6154;51.550;12.138;2022-08-30T08:56:19;101092.25;;;28.73;50.61
12182;BME280;6154;51.550;12.138;2022-08-30T08:58:50;101085.88;;;28.96;50.95
12182;BME280;6154;51.550;12.138;2022-08-30T09:01:22;101088.78;;;29.24;50.38
12182;BME280;6154;51.550;12.138;2022-08-30T09:03:51;101087.00;;;29.31;49.89
12182;BME280;6154;51.550;12.138;2022-08-30T09:06:39;101096.31;;;29.22;50.29
12182;BME280;6154;51.550;12.138;2022-08-30T09:09:12;101092.56;;;29.23;47.80
12182;BME280;6154;51.550;12.138;2022-08-30T09:11:41;101100.03;;;29.35;49.38
12182;BME280;6154;51.550;12.138;2022-08-30T09:14:13;101091.16;;;29.27;50.19
12182;BME280;6154;51.550;12.138;2022-08-30T09:16:45;101102.41;;;29.53;49.56
12182;BME280;6154;51.550;12.138;2022-08-30T09:19:42;101100.81;;;29.59;48.68
12182;BME280;6154;51.550;12.138;2022-08-30T09:22:18;101103.38;;;29.82;46.14
12182;BME280;6154;51.550;12.138;2022-08-30T09:24:50;101104.56;;;29.43;47.11
12182;BME280;6154;51.550;12.138;2022-08-30T09:27:25;101103.16;;;29.32;48.62
12182;BME280;6154;51.550;12.138;2022-08-30T09:29:59;101097.06;;;29.15;47.48
12182;BME280;6154;51.550;12.138;2022-08-30T09:32:31;101100.94;;;28.91;48.20
12182;BME280;6154;51.550;12.138;2022-08-30T09:35:00;101094.16;;;28.87;49.50
12182;BME280;6154;51.550;12.138;2022-08-30T09:37:33;101098.41;;;28.90;49.37
12182;BME280;6154;51.550;12.138;2022-08-30T09:40:09;101093.94;;;28.59;48.46
12182;BME280;6154;51.550;12.138;2022-08-30T09:42:39;101094.59;;;28.61;49.24
12182;BME280;6154;51.550;12.138;2022-08-30T09:45:28;101089.25;;;28.68;49.78
12182;BME280;6154;51.550;12.138;2022-08-30T09:47:57;101086.97;;;28.72;47.56
12182;BME280;6154;51.550;12.138;2022-08-30T09:50:29;101089.19;;;29.20;48.89
12182;BME280;6154;51.550;12.138;2022-08-30T09:53:06;101085.81;;;29.18;47.01
12182;BME280;6154;51.550;12.138;2022-08-30T09:55:47;101082.84;;;29.50;47.21
12182;BME280;6154;51.550;12.138;2022-08-30T09:58:28;101077.87;;;29.74;47.21
12182;BME280;6154;51.550;12.138;2022-08-30T10:01:07;101085.63;;;29.56;45.91
12182;BME280;6154;51.550;12.138;2022-08-30T10:03:42;101083.47;;;29.66;46.66
12182;BME280;6154;51.550;12.138;2022-08-30T10:06:20;101083.31;;;29.74;47.11
12182;BME280;6154;51.550;12.138;2022-08-30T10:09:02;101085.06;;;29.61;45.68
12182;BME280;6154;51.550;12.138;2022-08-30T10:11:39;101077.94;;;29.81;46.17
12182;BME280;6154;51.550;12.138;2022-08-30T10:17:32;101073.72;;;30.00;45.60
12182;BME280;6154;51.550;12.138;2022-08-30T10:20:13;101076.56;;;30.34;45.81
12182;BME280;6154;51.550;12.138;2022-08-30T10:22:47;101078.78;;;30.24;45.43
12182;BME280;6154;51.550;12.138;2022-08-30T10:25:23;101065.78;;;30.54;46.77
12182;BME280;6154;51.550;12.138;2022-08-30T10:27:57;101068.84;;;30.66;45.70
12182;BME280;6154;51.550;12.138;2022-08-30T10:30:33;101066.31;;;30.65;45.88
12182;BME280;6154;51.550;12.138;2022-08-30T10:33:05;101056.06;;;31.08;45.24
12182;BME280;6154;51.550;12.138;2022-08-30T10:35:39;101062.38;;;31.15;45.33
12182;BME280;6154;51.550;12.138;2022-08-30T10:38:17;101057.13;;;31.07;45.29
12182;BME280;6154;51.550;12.138;2022-08-30T10:40:54;101049.12;;;30.71;44.23
12182;BME280;6154;51.550;12.138;2022-08-30T10:43:46;101052.66;;;30.37;44.32
12182;BME280;6154;51.550;12.138;2022-08-30T10:46:25;101063.03;;;30.05;44.95
12182;BME280;6154;51.550;12.138;2022-08-30T10:48:58;101058.91;;;29.88;45.17
12182;BME280;6154;51.550;12.138;2022-08-30T10:51:32;101057.78;;;29.82;46.40
12182;BME280;6154;51.550;12.138;2022-08-30T10:54:09;101057.69;;;30.12;45.89
12182;BME280;6154;51.550;12.138;2022-08-30T10:56:48;101050.28;;;30.33;44.94
12182;BME280;6154;51.550;12.138;2022-08-30T10:59:19;101054.50;;;30.08;44.37
12182;BME280;6154;51.550;12.138;2022-08-30T11:02:07;101049.50;;;30.12;46.23
12182;BME280;6154;51.550;12.138;2022-08-30T11:04:55;101056.06;;;30.17;43.18
12182;BME280;6154;51.550;12.138;2022-08-30T11:07:36;101046.47;;;30.56;42.78
12182;BME280;6154;51.550;12.138;2022-08-30T11:10:24;101049.41;;;30.54;44.23
12182;BME280;6154;51.550;12.138;2022-08-30T11:12:59;101052.12;;;30.54;42.87
12182;BME280;6154;51.550;12.138;2022-08-30T11:15:31;101051.72;;;30.85;42.83
12182;BME280;6154;51.550;12.138;2022-08-30T11:18:04;101043.19;;;31.02;44.40
12182;BME280;6154;51.550;12.138;2022-08-30T11:20:41;101045.03;;;31.29;43.40
12182;BME280;6154;51.550;12.138;2022-08-30T11:23:23;101052.59;;;31.27;43.22
12182;BME280;6154;51.550;12.138;2022-08-30T11:25:54;101052.28;;;31.09;42.55
12182;BME280;6154;51.550;12.138;2022-08-30T11:29:01;101050.28;;;30.89;44.09
12182;BME280;6154;51.550;12.138;2022-08-30T11:31:42;101047.47;;;30.76;42.13
12182;BME280;6154;51.550;12.138;2022-08-30T11:34:11;101044.94;;;30.47;43.70
12182;BME280;6154;51.550;12.138;2022-08-30T11:37:03;101041.31;;;30.40;44.85
12182;BME280;6154;51.550;12.138;2022-08-30T11:39:47;101052.19;;;30.33;43.22
12182;BME280;6154;51.550;12.138;2022-08-30T11:42:37;101048.88;;;30.16;43.61
12182;BME280;6154;51.550;12.138;2022-08-30T11:45:44;101043.06;;;29.98;43.81
12182;BME280;6154;51.550;12.138;2022-08-30T11:48:41;101042.38;;;29.96;43.35
12182;BME280;6154;51.550;12.138;2022-08-30T11:54:54;101040.84;;;30.36;43.68
12182;BME280;6154;51.550;12.138;2022-08-30T11:57:30;101031.53;;;30.86;42.63
12182;BME280;6154;51.550;12.138;2022-08-30T12:00:05;101032.41;;;30.87;43.45
12182;BME280;6154;51.550;12.138;2022-08-30T12:02:48;101039.44;;;30.68;43.37
12182;BME280;6154;51.550;12.138;2022-08-30T12:05:50;101037.88;;;30.31;42.23
12182;BME280;6154;51.550;12.138;2022-08-30T12:08:47;101028.91;;;30.37;42.61
12182;BME280;6154;51.550;12.138;2022-08-30T12:11:59;101021.84;;;30.77;41.85
12182;BME280;6154;51.550;12.138;2022-08-30T12:14:41;101018.47;;;31.23;40.90
12182;BME280;6154;51.550;12.138;2022-08-30T12:17:21;101023.81;;;31.51;40.68
12182;BME280;6154;51.550;12.138;2022-08-30T12:20:23;101028.06;;;31.67;39.48
12182;BME280;6154;51.550;12.138;2022-08-30T12:22:52;101028.12;;;32.13;39.94
12182;BME280;6154;51.550;12.138;2022-08-30T12:25:28;101027.72;;;31.90;41.98
12182;BME280;6154;51.550;12.138;2022-08-30T12:28:12;101024.25;;;31.61;41.40
12182;BME280;6154;51.550;12.138;2022-08-30T12:30:42;101017.41;;;31.24;40.98
12182;BME280;6154;51.550;12.138;2022-08-30T12:33:21;101023.78;;;30.90;42.97
12182;BME280;6154;51.550;12.138;2022-08-30T12:35:57;101010.66;;;30.72;43.78
12182;BME280;6154;51.550;12.138;2022-08-30T12:38:28;101006.34;;;30.63;43.00
12182;BME280;6154;51.550;12.138;2022-08-30T12:41:00;101009.03;;;30.56;43.90
12182;BME280;6154;51.550;12.138;2022-08-30T12:43:34;101006.53;;;30.96;43.64
12182;BME280;6154;51.550;12.138;2022-08-30T12:46:10;100998.03;;;31.19;42.76
12182;BME280;6154;51.550;12.138;2022-08-30T12:48:42;101004.69;;;31.03;43.13
12182;BME280;6154;51.550;12.138;2022-08-30T12:51:27;100992.53;;;31.12;42.87
12182;BME280;6154;51.550;12.138;2022-08-30T12:54:04;100989.03;;;30.77;41.02
12182;BME280;6154;51.550;12.138;2022-08-30T12:56:57;100982.31;;;30.86;42.38
12182;BME280;6154;51.550;12.138;2022-08-30T12:59:50;100989.50;;;30.87;41.48
12182;BME280;6154;51.550;12.138;2022-08-30T13:02:27;100984.41;;;30.84;41.79
12182;BME280;6154;51.550;12.138;2022-08-30T13:05:26;100991.66;;;30.64;42.42
12182;BME280;6154;51.550;12.138;2022-08-30T13:08:09;100992.56;;;30.43;42.04
12182;BME280;6154;51.550;12.138;2022-08-30T13:10:52;100987.78;;;30.17;42.25
12182;BME280;6154;51.550;12.138;2022-08-30T13:13:37;101001.19;;;29.91;42.75
12182;BME280;6154;51.550;12.138;2022-08-30T13:16:19;100986.75;;;29.97;41.97
12182;BME280;6154;51.550;12.138;2022-08-30T13:18:49;100982.84;;;29.85;42.82
12182;BME280;6154;51.550;12.138;2022-08-30T13:21:22;100980.25;;;29.98;43.51
12182;BME280;6154;51.550;12.138;2022-08-30T13:23:56;100981.41;;;30.10;42.33
12182;BME280;6154;51.550;12.138;2022-08-30T13:26:25;100975.38;;;30.49;42.11